Time,TemperatureF,DewpointF,PressureIn,WindDirection,WindDirectionDegrees,WindSpeedMPH,WindSpeedGustMPH,Humidity,HourlyPrecipIn,Conditions,Clouds,dailyrainin,SolarRadiationWatts/m^2,SoftwareType,DateUTC
2013-02-18 00:02:00,14.0,-1.0,-100.00,SSW,200,4.0,8.0,51,0.00,,,0.00,0.000000,,2013-02-18 06:02:00,
2013-02-18 00:11:00,14.0,-1.0,-100.00,SSW,200,4.0,8.0,51,0.00,,,0.00,0.000000,,2013-02-18 06:11:00,
2013-02-18 00:42:00,15.0,1.0,-100.00,SSW,212,4.0,7.0,54,0.00,,,0.00,0.000000,,2013-02-18 06:42:00,
2013-02-18 00:52:00,15.0,1.0,-100.00,SSW,212,4.0,7.0,54,0.00,,,0.00,0.000000,,2013-02-18 06:52:00,
2013-02-18 01:01:00,15.0,1.0,-100.00,SSW,212,4.0,7.0,54,0.00,,,0.00,0.000000,,2013-02-18 07:01:00,
2013-02-18 01:11:00,15.0,1.0,-100.00,SSW,212,4.0,7.0,54,0.00,,,0.00,0.000000,,2013-02-18 07:11:00,
2013-02-18 01:42:00,17.0,5.0,-100.00,SSW,197,5.0,9.0,59,0.00,,,0.00,0.000000,,2013-02-18 07:42:00,
2013-02-18 01:52:00,17.0,5.0,-100.00,SSW,197,5.0,9.0,59,0.00,,,0.00,0.000000,,2013-02-18 07:52:00,
2013-02-18 02:01:00,17.0,5.0,-100.00,SSW,197,5.0,9.0,59,0.00,,,0.00,0.000000,,2013-02-18 08:01:00,
2013-02-18 02:11:00,17.0,5.0,-100.00,SSW,197,5.0,9.0,59,0.00,,,0.00,0.000000,,2013-02-18 08:11:00,
2013-02-18 02:33:00,19.0,9.0,-100.00,South,175,4.0,8.0,64,0.00,,,0.00,0.000000,,2013-02-18 08:33:00,
2013-02-18 02:42:00,19.0,9.0,-100.00,South,175,4.0,8.0,64,0.00,,,0.00,0.000000,,2013-02-18 08:42:00,
2013-02-18 02:52:00,19.0,9.0,-100.00,South,175,4.0,8.0,64,0.00,,,0.00,0.000000,,2013-02-18 08:52:00,
2013-02-18 03:02:00,19.0,9.0,-100.00,South,175,4.0,8.0,64,0.00,,,0.00,0.000000,,2013-02-18 09:02:00,
2013-02-18 03:11:00,19.0,9.0,-100.00,South,175,4.0,8.0,64,0.00,,,0.00,0.000000,,2013-02-18 09:11:00,
2013-02-18 03:32:00,20.0,16.0,-100.00,SSE,166,5.0,9.0,85,0.00,,,0.00,0.000000,,2013-02-18 09:32:00,
2013-02-18 03:42:00,20.0,16.0,-100.00,SSE,166,5.0,9.0,85,0.00,,,0.00,0.000000,,2013-02-18 09:42:00,
2013-02-18 03:52:00,20.0,16.0,-100.00,SSE,166,5.0,9.0,85,0.00,,,0.00,0.000000,,2013-02-18 09:52:00,
2013-02-18 04:01:00,20.0,16.0,-100.00,SSE,166,5.0,9.0,85,0.00,,,0.00,0.000000,,2013-02-18 10:01:00,
2013-02-18 04:11:00,20.0,16.0,-100.00,SSE,166,5.0,9.0,85,0.00,,,0.00,0.000000,,2013-02-18 10:11:00,
2013-02-18 04:42:00,21.0,18.0,-100.00,SE,143,4.0,9.0,87,0.00,,,0.00,0.000000,,2013-02-18 10:42:00,
2013-02-18 04:53:00,21.0,18.0,-100.00,SE,143,4.0,9.0,87,0.00,,,0.00,0.000000,,2013-02-18 10:53:00,
2013-02-18 05:01:00,21.0,18.0,-100.00,SE,143,4.0,9.0,87,0.00,,,0.00,0.000000,,2013-02-18 11:01:00,
2013-02-18 05:11:00,21.0,18.0,-100.00,SE,143,4.0,9.0,87,0.00,,,0.00,0.000000,,2013-02-18 11:11:00,
2013-02-18 05:43:00,22.0,20.0,-100.00,SSE,150,5.0,10.0,92,0.00,,,0.00,0.000000,,2013-02-18 11:43:00,
2013-02-18 05:53:00,22.0,20.0,-100.00,SSE,150,5.0,10.0,92,0.00,,,0.00,0.000000,,2013-02-18 11:53:00,
2013-02-18 06:02:00,22.0,20.0,-100.00,SSE,150,5.0,10.0,92,0.00,,,0.00,0.000000,,2013-02-18 12:02:00,
2013-02-18 06:11:00,22.0,20.0,-100.00,SSE,150,5.0,10.0,92,0.00,,,0.00,0.000000,,2013-02-18 12:11:00,
2013-02-18 06:12:00,27.0,24.0,-100.00,SSE,162,7.0,16.0,88,0.00,,,0.00,0.000000,,2013-02-18 12:12:00,
2013-02-18 06:32:00,27.0,24.0,-100.00,SSE,162,7.0,16.0,88,0.00,,,0.00,0.000000,,2013-02-18 12:32:00,
2013-02-18 06:42:00,27.0,24.0,-100.00,SSE,162,7.0,16.0,88,0.00,,,0.00,0.000000,,2013-02-18 12:42:00,
2013-02-18 06:53:00,27.0,24.0,-100.00,SSE,162,7.0,16.0,88,0.00,,,0.00,0.000000,,2013-02-18 12:53:00,
2013-02-18 07:03:00,27.0,24.0,-100.00,SSE,162,7.0,16.0,88,0.00,,,0.00,0.000000,,2013-02-18 13:03:00,
2013-02-18 07:42:00,27.0,23.0,-100.00,SSE,156,7.0,17.0,85,0.00,,,-99.99,1.000000,,2013-02-18 13:42:00,
2013-02-18 07:53:00,27.0,23.0,-100.00,SSE,156,7.0,17.0,85,0.00,,,-99.99,1.000000,,2013-02-18 13:53:00,
2013-02-18 08:02:00,27.0,23.0,-100.00,SSE,156,7.0,17.0,85,0.00,,,-99.99,1.000000,,2013-02-18 14:02:00,
2013-02-18 08:11:00,27.0,23.0,-100.00,SSE,156,7.0,17.0,85,0.00,,,-99.99,1.000000,,2013-02-18 14:11:00,
2013-02-18 08:34:00,28.0,23.0,-100.00,SSE,155,7.0,15.0,81,0.00,,,0.00,22.000000,,2013-02-18 14:34:00,
2013-02-18 08:42:00,28.0,23.0,-100.00,SSE,155,7.0,15.0,81,0.00,,,0.00,22.000000,,2013-02-18 14:42:00,
2013-02-18 08:53:00,28.0,23.0,-100.00,SSE,155,7.0,15.0,81,0.00,,,0.00,22.000000,,2013-02-18 14:53:00,
2013-02-18 09:02:00,28.0,23.0,-100.00,SSE,155,7.0,15.0,81,0.00,,,0.00,22.000000,,2013-02-18 15:02:00,
2013-02-18 09:11:00,28.0,23.0,-100.00,SSE,155,7.0,15.0,81,0.00,,,0.00,22.000000,,2013-02-18 15:11:00,
2013-02-18 09:12:00,30.0,24.0,-100.00,SSE,166,7.0,15.0,77,0.00,,,0.00,84.000000,,2013-02-18 15:12:00,
2013-02-18 09:42:00,30.0,24.0,-100.00,SSE,166,7.0,15.0,77,0.00,,,0.00,84.000000,,2013-02-18 15:42:00,
2013-02-18 09:53:00,30.0,24.0,-100.00,SSE,166,7.0,15.0,77,0.00,,,0.00,84.000000,,2013-02-18 15:53:00,
2013-02-18 10:03:00,30.0,24.0,-100.00,SSE,166,7.0,15.0,77,0.00,,,0.00,84.000000,,2013-02-18 16:03:00,
2013-02-18 10:12:00,32.0,25.0,-100.00,SSE,164,7.0,14.0,76,0.00,,,0.00,129.000000,,2013-02-18 16:12:00,
2013-02-18 10:33:00,32.0,25.0,-100.00,SSE,164,7.0,14.0,76,0.00,,,0.00,129.000000,,2013-02-18 16:33:00,
2013-02-18 10:43:00,32.0,25.0,-100.00,SSE,164,7.0,14.0,76,0.00,,,0.00,129.000000,,2013-02-18 16:43:00,
2013-02-18 10:53:00,32.0,25.0,-100.00,SSE,164,7.0,14.0,76,0.00,,,0.00,129.000000,,2013-02-18 16:53:00,
2013-02-18 11:03:00,32.0,25.0,-100.00,SSE,164,7.0,14.0,76,0.00,,,0.00,129.000000,,2013-02-18 17:03:00,
2013-02-18 11:12:00,34.0,27.0,-100.00,SSE,167,7.0,14.0,74,0.00,,,0.00,140.000000,,2013-02-18 17:12:00,
2013-02-18 11:43:00,34.0,27.0,-100.00,SSE,167,7.0,14.0,74,0.00,,,0.00,140.000000,,2013-02-18 17:43:00,
2013-02-18 11:53:00,34.0,27.0,-100.00,SSE,167,7.0,14.0,74,0.00,,,0.00,140.000000,,2013-02-18 17:53:00,
2013-02-18 12:02:00,34.0,27.0,-100.00,SSE,167,7.0,14.0,74,0.00,,,0.00,140.000000,,2013-02-18 18:02:00,
2013-02-18 12:12:00,37.0,27.0,-100.00,South,175,8.0,15.0,67,0.00,,,0.00,183.000000,,2013-02-18 18:12:00,
2013-02-18 12:33:00,37.0,27.0,-100.00,South,175,8.0,15.0,67,0.00,,,0.00,183.000000,,2013-02-18 18:33:00,
2013-02-18 12:43:00,37.0,27.0,-100.00,South,175,8.0,15.0,67,0.00,,,0.00,183.000000,,2013-02-18 18:43:00,
2013-02-18 12:53:00,37.0,27.0,-100.00,South,175,8.0,15.0,67,0.00,,,0.00,183.000000,,2013-02-18 18:53:00,
2013-02-18 13:03:00,37.0,27.0,-100.00,South,175,8.0,15.0,67,0.00,,,0.00,183.000000,,2013-02-18 19:03:00,
2013-02-18 13:12:00,38.0,27.0,-100.00,South,179,7.0,15.0,64,0.00,,,0.00,240.000000,,2013-02-18 19:12:00,
2013-02-18 13:43:00,38.0,27.0,-100.00,South,179,7.0,15.0,64,0.00,,,0.00,240.000000,,2013-02-18 19:43:00,
2013-02-18 13:53:00,38.0,27.0,-100.00,South,179,7.0,15.0,64,0.00,,,0.00,240.000000,,2013-02-18 19:53:00,
2013-02-18 14:02:00,38.0,27.0,-100.00,South,179,7.0,15.0,64,0.00,,,0.00,240.000000,,2013-02-18 20:02:00,
2013-02-18 15:12:00,38.0,27.0,-100.00,SSW,192,8.0,14.0,64,-99.99,,,0.00,156.000000,,2013-02-18 21:12:00,
2013-02-18 15:43:00,38.0,27.0,-100.00,SSW,192,8.0,14.0,64,-99.99,,,0.00,156.000000,,2013-02-18 21:43:00,
2013-02-18 15:53:00,38.0,27.0,-100.00,SSW,192,8.0,14.0,64,-99.99,,,0.00,156.000000,,2013-02-18 21:53:00,
2013-02-18 16:02:00,38.0,27.0,-100.00,SSW,192,8.0,14.0,64,-99.99,,,0.00,156.000000,,2013-02-18 22:02:00,
2013-02-18 17:12:00,36.0,28.0,-100.00,SSW,196,5.0,17.0,73,-99.99,,,0.00,26.000000,,2013-02-18 23:12:00,
2013-02-18 17:34:00,36.0,28.0,-100.00,SSW,196,5.0,17.0,73,-99.99,,,0.00,26.000000,,2013-02-18 23:34:00,
2013-02-18 17:43:00,36.0,28.0,-100.00,SSW,196,5.0,17.0,73,-99.99,,,0.00,26.000000,,2013-02-18 23:43:00,
2013-02-18 17:53:00,36.0,28.0,-100.00,SSW,196,5.0,17.0,73,-99.99,,,0.00,26.000000,,2013-02-18 23:53:00,
2013-02-18 18:03:00,36.0,28.0,-100.00,SSW,196,5.0,17.0,73,-99.99,,,0.00,26.000000,,2013-02-19 00:03:00,
2013-02-18 18:12:00,35.0,28.0,-100.00,SSE,164,2.0,8.0,76,0.00,,,0.00,0.000000,,2013-02-19 00:12:00,
2013-02-18 18:35:00,35.0,28.0,-100.00,SSE,164,2.0,8.0,76,0.00,,,0.00,0.000000,,2013-02-19 00:35:00,
2013-02-18 18:44:00,35.0,28.0,-100.00,SSE,164,2.0,8.0,76,0.00,,,0.00,0.000000,,2013-02-19 00:44:00,
2013-02-18 18:54:00,35.0,28.0,-100.00,SSE,164,2.0,8.0,76,0.00,,,0.00,0.000000,,2013-02-19 00:54:00,
2013-02-18 19:03:00,35.0,28.0,-100.00,SSE,164,2.0,8.0,76,0.00,,,0.00,0.000000,,2013-02-19 01:03:00,
2013-02-18 19:12:00,34.0,28.0,-100.00,SSW,194,1.0,4.0,79,0.00,,,-99.99,0.000000,,2013-02-19 01:12:00,
2013-02-18 19:45:00,34.0,28.0,-100.00,SSW,194,1.0,4.0,79,0.00,,,-99.99,0.000000,,2013-02-19 01:45:00,
2013-02-18 19:56:00,34.0,28.0,-100.00,SSW,194,1.0,4.0,79,0.00,,,-99.99,0.000000,,2013-02-19 01:56:00,
2013-02-18 20:03:00,34.0,28.0,-100.00,SSW,194,1.0,4.0,79,0.00,,,-99.99,0.000000,,2013-02-19 02:03:00,
2013-02-18 20:12:00,32.0,29.0,-100.00,North,355,0.0,0.0,87,0.00,,,0.00,0.000000,,2013-02-19 02:12:00,
2013-02-18 20:44:00,32.0,29.0,-100.00,North,355,0.0,0.0,87,0.00,,,0.00,0.000000,,2013-02-19 02:44:00,
2013-02-18 20:55:00,32.0,29.0,-100.00,North,355,0.0,0.0,87,0.00,,,0.00,0.000000,,2013-02-19 02:55:00,
2013-02-18 21:06:00,32.0,29.0,-100.00,North,355,0.0,0.0,87,0.00,,,0.00,0.000000,,2013-02-19 03:06:00,
2013-02-18 21:12:00,32.0,30.0,-100.00,North,359,2.0,4.0,91,0.00,,,0.00,0.000000,,2013-02-19 03:12:00,
2013-02-18 21:35:00,32.0,30.0,-100.00,North,359,2.0,4.0,91,0.00,,,0.00,0.000000,,2013-02-19 03:35:00,
2013-02-18 21:45:00,32.0,30.0,-100.00,North,359,2.0,4.0,91,0.00,,,0.00,0.000000,,2013-02-19 03:45:00,
2013-02-18 21:55:00,32.0,30.0,-100.00,North,359,2.0,4.0,91,0.00,,,0.00,0.000000,,2013-02-19 03:55:00,
2013-02-18 22:02:00,32.0,30.0,-100.00,North,359,2.0,4.0,91,0.00,,,0.00,0.000000,,2013-02-19 04:02:00,
2013-02-18 22:12:00,32.0,30.0,-100.00,North,6,2.0,3.0,91,0.00,,,0.00,0.000000,,2013-02-19 04:12:00,
2013-02-18 22:34:00,32.0,30.0,-100.00,North,6,2.0,3.0,91,0.00,,,0.00,0.000000,,2013-02-19 04:34:00,
2013-02-18 22:45:00,32.0,30.0,-100.00,North,6,2.0,3.0,91,0.00,,,0.00,0.000000,,2013-02-19 04:45:00,
2013-02-18 22:55:00,32.0,30.0,-100.00,North,6,2.0,3.0,91,0.00,,,0.00,0.000000,,2013-02-19 04:55:00,
2013-02-18 23:02:00,32.0,30.0,-100.00,North,6,2.0,3.0,91,0.00,,,0.00,0.000000,,2013-02-19 05:02:00,
2013-02-18 23:32:00,32.0,30.0,-100.00,North,354,4.0,8.0,93,0.00,,,0.00,0.000000,,2013-02-19 05:32:00,
2013-02-18 23:43:00,32.0,30.0,-100.00,North,354,4.0,8.0,93,0.00,,,0.00,0.000000,,2013-02-19 05:43:00,
2013-02-18 23:52:00,32.0,30.0,-100.00,North,354,4.0,8.0,93,0.00,,,0.00,0.000000,,2013-02-19 05:52:00,